sensor_id;sensor_type;location;lat;lon;timestamp;P1;durP1;ratioP1;P2;durP2;ratioP2
19278;SDS011;9773;47.062;15.446;2023-01-24T00:00:59;2.00;;;1.90;;
19278;SDS011;9773;47.062;15.446;2023-01-24T00:03:25;2.20;;;2.10;;
19278;SDS011;9773;47.062;15.446;2023-01-24T00:05:50;2.80;;;2.60;;
19278;SDS011;9773;47.062;15.446;2023-01-24T00:08:17;3.00;;;2.80;;
19278;SDS011;9773;47.062;15.446;2023-01-24T00:10:44;2.93;;;2.67;;
19278;SDS011;9773;47.062;15.446;2023-01-24T00:13:12;2.47;;;2.37;;
19278;SDS011;9773;47.062;15.446;2023-01-24T00:15:38;3.03;;;2.83;;
19278;SDS011;9773;47.062;15.446;2023-01-24T00:18:04;2.53;;;2.40;;
19278;SDS011;9773;47.062;15.446;2023-01-24T00:20:30;1.87;;;1.80;;
19278;SDS011;9773;47.062;15.446;2023-01-24T00:22:56;2.20;;;2.10;;
19278;SDS011;9773;47.062;15.446;2023-01-24T00:25:22;1.93;;;1.83;;
19278;SDS011;9773;47.062;15.446;2023-01-24T00:27:48;1.87;;;1.80;;
19278;SDS011;9773;47.062;15.446;2023-01-24T00:30:14;2.20;;;2.10;;
19278;SDS011;9773;47.062;15.446;2023-01-24T00:32:40;2.10;;;1.90;;
19278;SDS011;9773;47.062;15.446;2023-01-24T00:35:06;2.20;;;2.10;;
19278;SDS011;9773;47.062;15.446;2023-01-24T00:37:32;2.20;;;2.10;;
19278;SDS011;9773;47.062;15.446;2023-01-24T00:39:58;2.07;;;1.97;;
19278;SDS011;9773;47.062;15.446;2023-01-24T00:42:24;2.20;;;2.00;;
19278;SDS011;9773;47.062;15.446;2023-01-24T00:44:49;1.70;;;1.60;;
19278;SDS011;9773;47.062;15.446;2023-01-24T00:47:15;1.83;;;1.73;;
19278;SDS011;9773;47.062;15.446;2023-01-24T00:49:41;1.57;;;1.57;;
19278;SDS011;9773;47.062;15.446;2023-01-24T00:52:07;1.70;;;1.70;;
19278;SDS011;9773;47.062;15.446;2023-01-24T00:54:33;1.80;;;1.80;;
19278;SDS011;9773;47.062;15.446;2023-01-24T00:56:58;2.00;;;1.80;;
19278;SDS011;9773;47.062;15.446;2023-01-24T00:59:24;2.23;;;2.13;;
19278;SDS011;9773;47.062;15.446;2023-01-24T01:01:50;1.80;;;1.70;;
19278;SDS011;9773;47.062;15.446;2023-01-24T01:04:16;1.90;;;1.80;;
19278;SDS011;9773;47.062;15.446;2023-01-24T01:06:43;1.87;;;1.77;;
19278;SDS011;9773;47.062;15.446;2023-01-24T01:09:09;2.10;;;2.00;;
19278;SDS011;9773;47.062;15.446;2023-01-24T01:11:36;2.10;;;2.00;;
19278;SDS011;9773;47.062;15.446;2023-01-24T01:14:06;2.07;;;1.97;;
19278;SDS011;9773;47.062;15.446;2023-01-24T01:16:33;2.50;;;2.40;;
19278;SDS011;9773;47.062;15.446;2023-01-24T01:19:02;2.37;;;2.27;;
19278;SDS011;9773;47.062;15.446;2023-01-24T01:21:29;2.10;;;2.00;;
19278;SDS011;9773;47.062;15.446;2023-01-24T01:23:55;2.40;;;2.30;;
19278;SDS011;9773;47.062;15.446;2023-01-24T01:26:21;2.47;;;2.37;;
19278;SDS011;9773;47.062;15.446;2023-01-24T01:28:47;2.23;;;2.10;;
19278;SDS011;9773;47.062;15.446;2023-01-24T01:31:13;2.20;;;2.10;;
19278;SDS011;9773;47.062;15.446;2023-01-24T01:33:39;2.20;;;2.10;;
19278;SDS011;9773;47.062;15.446;2023-01-24T01:36:07;2.23;;;2.13;;
19278;SDS011;9773;47.062;15.446;2023-01-24T01:38:33;2.67;;;2.10;;
19278;SDS011;9773;47.062;15.446;2023-01-24T01:40:59;2.10;;;2.00;;
19278;SDS011;9773;47.062;15.446;2023-01-24T01:43:26;2.07;;;1.97;;
19278;SDS011;9773;47.062;15.446;2023-01-24T01:48:44;2.20;;;2.10;;
19278;SDS011;9773;47.062;15.446;2023-01-24T01:51:22;2.50;;;2.30;;
19278;SDS011;9773;47.062;15.446;2023-01-24T01:54:09;2.30;;;1.90;;
19278;SDS011;9773;47.062;15.446;2023-01-24T01:56:43;2.07;;;1.97;;
19278;SDS011;9773;47.062;15.446;2023-01-24T01:59:14;2.00;;;1.90;;
19278;SDS011;9773;47.062;15.446;2023-01-24T02:01:44;1.97;;;1.87;;
19278;SDS011;9773;47.062;15.446;2023-01-24T02:04:13;2.00;;;1.90;;
19278;SDS011;9773;47.062;15.446;2023-01-24T02:09:20;2.07;;;1.97;;
19278;SDS011;9773;47.062;15.446;2023-01-24T02:11:49;2.07;;;1.97;;
19278;SDS011;9773;47.062;15.446;2023-01-24T02:14:18;2.20;;;2.10;;
19278;SDS011;9773;47.062;15.446;2023-01-24T02:17:05;2.00;;;1.90;;
19278;SDS011;9773;47.062;15.446;2023-01-24T02:19:36;1.90;;;1.80;;
19278;SDS011;9773;47.062;15.446;2023-01-24T02:24:59;2.13;;;2.00;;
19278;SDS011;9773;47.062;15.446;2023-01-24T02:27:31;2.47;;;2.27;;
19278;SDS011;9773;47.062;15.446;2023-01-24T02:29:57;2.60;;;2.40;;
19278;SDS011;9773;47.062;15.446;2023-01-24T02:32:23;2.13;;;2.03;;
19278;SDS011;9773;47.062;15.446;2023-01-24T02:34:50;3.20;;;3.00;;
19278;SDS011;9773;47.062;15.446;2023-01-24T02:37:16;3.97;;;3.30;;
19278;SDS011;9773;47.062;15.446;2023-01-24T02:39:54;4.20;;;3.53;;
19278;SDS011;9773;47.062;15.446;2023-01-24T02:42:29;3.80;;;3.50;;
19278;SDS011;9773;47.062;15.446;2023-01-24T02:47:28;4.00;;;3.70;;
19278;SDS011;9773;47.062;15.446;2023-01-24T02:49:58;4.57;;;4.17;;
19278;SDS011;9773;47.062;15.446;2023-01-24T02:52:25;4.37;;;4.00;;
19278;SDS011;9773;47.062;15.446;2023-01-24T02:55:09;4.33;;;3.97;;
19278;SDS011;9773;47.062;15.446;2023-01-24T02:57:36;4.37;;;4.07;;
19278;SDS011;9773;47.062;15.446;2023-01-24T03:00:20;3.90;;;3.60;;
19278;SDS011;9773;47.062;15.446;2023-01-24T03:02:46;4.10;;;3.80;;
19278;SDS011;9773;47.062;15.446;2023-01-24T03:05:11;3.87;;;3.57;;
19278;SDS011;9773;47.062;15.446;2023-01-24T03:07:37;4.90;;;3.80;;
19278;SDS011;9773;47.062;15.446;2023-01-24T03:10:12;3.93;;;3.63;;
19278;SDS011;9773;47.062;15.446;2023-01-24T03:12:40;3.50;;;3.20;;
19278;SDS011;9773;47.062;15.446;2023-01-24T03:15:25;3.73;;;3.43;;
19278;SDS011;9773;47.062;15.446;2023-01-24T03:18:09;3.90;;;3.60;;
19278;SDS011;9773;47.062;15.446;2023-01-24T03:20:54;3.40;;;3.20;;
19278;SDS011;9773;47.062;15.446;2023-01-24T03:23:38;3.17;;;2.97;;
19278;SDS011;9773;47.062;15.446;2023-01-24T03:26:23;3.40;;;3.10;;
19278;SDS011;9773;47.062;15.446;2023-01-24T03:29:07;5.30;;;4.80;;
19278;SDS011;9773;47.062;15.446;2023-01-24T03:31:52;4.87;;;4.47;;
19278;SDS011;9773;47.062;15.446;2023-01-24T03:34:36;5.33;;;4.30;;
19278;SDS011;9773;47.062;15.446;2023-01-24T03:37:14;6.17;;;5.10;;
19278;SDS011;9773;47.062;15.446;2023-01-24T03:40:04;6.73;;;5.70;;
19278;SDS011;9773;47.062;15.446;2023-01-24T03:42:35;5.83;;;5.33;;
19278;SDS011;9773;47.062;15.446;2023-01-24T03:45:22;7.93;;;5.87;;
19278;SDS011;9773;47.062;15.446;2023-01-24T03:47:51;6.00;;;5.33;;
19278;SDS011;9773;47.062;15.446;2023-01-24T03:50:22;6.53;;;5.83;;
19278;SDS011;9773;47.062;15.446;2023-01-24T03:53:18;5.43;;;5.00;;
19278;SDS011;9773;47.062;15.446;2023-01-24T03:55:44;5.40;;;4.90;;
19278;SDS011;9773;47.062;15.446;2023-01-24T03:58:11;5.53;;;5.03;;
19278;SDS011;9773;47.062;15.446;2023-01-24T04:00:38;5.17;;;4.67;;
19278;SDS011;9773;47.062;15.446;2023-01-24T04:03:04;5.37;;;4.97;;
19278;SDS011;9773;47.062;15.446;2023-01-24T04:05:31;5.50;;;5.00;;
19278;SDS011;9773;47.062;15.446;2023-01-24T04:07:58;5.70;;;5.10;;
19278;SDS011;9773;47.062;15.446;2023-01-24T04:10:24;5.47;;;4.67;;
19278;SDS011;9773;47.062;15.446;2023-01-24T04:12:50;5.80;;;4.87;;
19278;SDS011;9773;47.062;15.446;2023-01-24T04:15:17;5.30;;;4.90;;
19278;SDS011;9773;47.062;15.446;2023-01-24T04:17:44;5.43;;;4.93;;
19278;SDS011;9773;47.062;15.446;2023-01-24T04:20:10;5.10;;;4.70;;
19278;SDS011;9773;47.062;15.446;2023-01-24T04:22:36;4.83;;;4.43;;
19278;SDS011;9773;47.062;15.446;2023-01-24T04:25:02;4.93;;;4.53;;
19278;SDS011;9773;47.062;15.446;2023-01-24T04:27:28;3.90;;;3.70;;
19278;SDS011;9773;47.062;15.446;2023-01-24T04:29:54;4.57;;;4.13;;
19278;SDS011;9773;47.062;15.446;2023-01-24T04:32:20;3.90;;;3.60;;
19278;SDS011;9773;47.062;15.446;2023-01-24T04:34:46;2.73;;;2.53;;
19278;SDS011;9773;47.062;15.446;2023-01-24T04:37:11;3.27;;;3.07;;
19278;SDS011;9773;47.062;15.446;2023-01-24T04:39:37;3.83;;;3.50;;
19278;SDS011;9773;47.062;15.446;2023-01-24T04:42:03;3.10;;;2.90;;
19278;SDS011;9773;47.062;15.446;2023-01-24T04:44:30;3.10;;;2.90;;
19278;SDS011;9773;47.062;15.446;2023-01-24T04:46:56;2.53;;;2.43;;
19278;SDS011;9773;47.062;15.446;2023-01-24T04:49:22;2.63;;;2.43;;
19278;SDS011;9773;47.062;15.446;2023-01-24T04:51:49;2.20;;;2.10;;
19278;SDS011;9773;47.062;15.446;2023-01-24T04:54:15;2.30;;;2.10;;
19278;SDS011;9773;47.062;15.446;2023-01-24T04:56:41;2.40;;;2.30;;
19278;SDS011;9773;47.062;15.446;2023-01-24T04:59:09;2.13;;;2.03;;
19278;SDS011;9773;47.062;15.446;2023-01-24T05:01:36;2.10;;;2.00;;
19278;SDS011;9773;47.062;15.446;2023-01-24T05:04:02;2.10;;;2.00;;
19278;SDS011;9773;47.062;15.446;2023-01-24T05:06:29;2.03;;;1.93;;
19278;SDS011;9773;47.062;15.446;2023-01-24T05:08:56;2.17;;;2.07;;
19278;SDS011;9773;47.062;15.446;2023-01-24T05:11:22;2.60;;;2.40;;
19278;SDS011;9773;47.062;15.446;2023-01-24T05:13:49;2.10;;;2.00;;
19278;SDS011;9773;47.062;15.446;2023-01-24T05:16:15;2.27;;;2.17;;
19278;SDS011;9773;47.062;15.446;2023-01-24T05:18:41;2.33;;;2.23;;
19278;SDS011;9773;47.062;15.446;2023-01-24T05:21:12;2.90;;;2.40;;
19278;SDS011;9773;47.062;15.446;2023-01-24T05:23:39;2.40;;;2.30;;
19278;SDS011;9773;47.062;15.446;2023-01-24T05:26:06;2.57;;;2.40;;
19278;SDS011;9773;47.062;15.446;2023-01-24T05:28:32;2.20;;;2.10;;
19278;SDS011;9773;47.062;15.446;2023-01-24T05:30:58;2.43;;;2.33;;
19278;SDS011;9773;47.062;15.446;2023-01-24T05:33:29;2.60;;;2.40;;
19278;SDS011;9773;47.062;15.446;2023-01-24T05:36:05;2.40;;;2.30;;
19278;SDS011;9773;47.062;15.446;2023-01-24T05:38:33;2.70;;;2.50;;
19278;SDS011;9773;47.062;15.446;2023-01-24T05:40:59;2.50;;;2.30;;
19278;SDS011;9773;47.062;15.446;2023-01-24T05:43:27;2.50;;;2.30;;
19278;SDS011;9773;47.062;15.446;2023-01-24T05:46:00;2.40;;;2.30;;
19278;SDS011;9773;47.062;15.446;2023-01-24T05:48:28;2.23;;;2.13;;
19278;SDS011;9773;47.062;15.446;2023-01-24T05:51:01;2.50;;;2.40;;
19278;SDS011;9773;47.062;15.446;2023-01-24T05:53:29;2.60;;;2.37;;
19278;SDS011;9773;47.062;15.446;2023-01-24T05:55:57;2.27;;;2.17;;
19278;SDS011;9773;47.062;15.446;2023-01-24T05:58:24;2.20;;;2.10;;
19278;SDS011;9773;47.062;15.446;2023-01-24T06:00:50;2.10;;;2.00;;
19278;SDS011;9773;47.062;15.446;2023-01-24T06:03:16;2.80;;;2.50;;
19278;SDS011;9773;47.062;15.446;2023-01-24T06:05:46;2.43;;;2.23;;
19278;SDS011;9773;47.062;15.446;2023-01-24T06:08:18;2.40;;;2.20;;
19278;SDS011;9773;47.062;15.446;2023-01-24T06:10:44;2.17;;;2.07;;
19278;SDS011;9773;47.062;15.446;2023-01-24T06:13:10;3.07;;;2.20;;
19278;SDS011;9773;47.062;15.446;2023-01-24T06:15:36;5.17;;;2.93;;
19278;SDS011;9773;47.062;15.446;2023-01-24T06:18:03;4.17;;;2.50;;
19278;SDS011;9773;47.062;15.446;2023-01-24T06:20:30;3.63;;;3.00;;
19278;SDS011;9773;47.062;15.446;2023-01-24T06:22:59;3.73;;;2.93;;
19278;SDS011;9773;47.062;15.446;2023-01-24T06:25:28;3.13;;;2.83;;
19278;SDS011;9773;47.062;15.446;2023-01-24T06:27:54;2.80;;;2.60;;
19278;SDS011;9773;47.062;15.446;2023-01-24T06:30:20;2.57;;;2.43;;
19278;SDS011;9773;47.062;15.446;2023-01-24T06:32:56;3.23;;;2.43;;
19278;SDS011;9773;47.062;15.446;2023-01-24T06:38:35;3.57;;;2.90;;
19278;SDS011;9773;47.062;15.446;2023-01-24T06:41:01;3.27;;;2.97;;
19278;SDS011;9773;47.062;15.446;2023-01-24T06:43:27;3.10;;;2.80;;
19278;SDS011;9773;47.062;15.446;2023-01-24T06:45:54;4.67;;;3.13;;
19278;SDS011;9773;47.062;15.446;2023-01-24T06:48:20;3.20;;;3.00;;
19278;SDS011;9773;47.062;15.446;2023-01-24T06:50:49;3.50;;;3.30;;
19278;SDS011;9773;47.062;15.446;2023-01-24T06:53:15;3.53;;;3.23;;
19278;SDS011;9773;47.062;15.446;2023-01-24T06:55:44;3.47;;;3.20;;
19278;SDS011;9773;47.062;15.446;2023-01-24T06:58:10;3.40;;;3.20;;
19278;SDS011;9773;47.062;15.446;2023-01-24T07:00:36;3.50;;;3.30;;
19278;SDS011;9773;47.062;15.446;2023-01-24T07:03:03;3.57;;;3.37;;
19278;SDS011;9773;47.062;15.446;2023-01-24T07:05:33;3.53;;;3.23;;
19278;SDS011;9773;47.062;15.446;2023-01-24T07:08:01;4.27;;;3.67;;
19278;SDS011;9773;47.062;15.446;2023-01-24T07:10:26;3.60;;;3.40;;
19278;SDS011;9773;47.062;15.446;2023-01-24T07:12:53;3.57;;;3.33;;
19278;SDS011;9773;47.062;15.446;2023-01-24T07:15:19;3.73;;;3.50;;
19278;SDS011;9773;47.062;15.446;2023-01-24T07:17:45;3.47;;;3.23;;
19278;SDS011;9773;47.062;15.446;2023-01-24T07:20:12;3.07;;;2.77;;
19278;SDS011;9773;47.062;15.446;2023-01-24T07:22:38;3.37;;;3.13;;
19278;SDS011;9773;47.062;15.446;2023-01-24T07:25:05;3.33;;;3.13;;
19278;SDS011;9773;47.062;15.446;2023-01-24T07:27:40;3.20;;;3.00;;
19278;SDS011;9773;47.062;15.446;2023-01-24T07:30:09;4.10;;;3.40;;
19278;SDS011;9773;47.062;15.446;2023-01-24T07:32:37;5.60;;;4.97;;
19278;SDS011;9773;47.062;15.446;2023-01-24T07:35:03;3.40;;;3.10;;
19278;SDS011;9773;47.062;15.446;2023-01-24T07:37:30;3.50;;;3.20;;
19278;SDS011;9773;47.062;15.446;2023-01-24T07:39:55;4.07;;;2.97;;
19278;SDS011;9773;47.062;15.446;2023-01-24T07:42:21;3.57;;;3.30;;
19278;SDS011;9773;47.062;15.446;2023-01-24T07:44:47;3.50;;;3.20;;
19278;SDS011;9773;47.062;15.446;2023-01-24T07:47:13;4.07;;;3.40;;
19278;SDS011;9773;47.062;15.446;2023-01-24T07:49:38;3.50;;;3.20;;
19278;SDS011;9773;47.062;15.446;2023-01-24T07:52:04;3.40;;;3.10;;
19278;SDS011;9773;47.062;15.446;2023-01-24T07:54:30;3.60;;;3.10;;
19278;SDS011;9773;47.062;15.446;2023-01-24T07:56:56;3.60;;;3.30;;
19278;SDS011;9773;47.062;15.446;2023-01-24T07:59:22;3.50;;;3.30;;
19278;SDS011;9773;47.062;15.446;2023-01-24T08:01:48;3.83;;;3.53;;
19278;SDS011;9773;47.062;15.446;2023-01-24T08:04:13;4.23;;;3.87;;
19278;SDS011;9773;47.062;15.446;2023-01-24T08:06:39;4.53;;;4.20;;
19278;SDS011;9773;47.062;15.446;2023-01-24T08:09:28;4.87;;;4.00;;
19278;SDS011;9773;47.062;15.446;2023-01-24T08:11:54;4.63;;;3.80;;
19278;SDS011;9773;47.062;15.446;2023-01-24T08:14:20;3.63;;;3.37;;
19278;SDS011;9773;47.062;15.446;2023-01-24T08:16:47;3.57;;;3.33;;
19278;SDS011;9773;47.062;15.446;2023-01-24T08:19:16;4.50;;;4.10;;
19278;SDS011;9773;47.062;15.446;2023-01-24T08:21:42;4.17;;;3.73;;
19278;SDS011;9773;47.062;15.446;2023-01-24T08:24:08;4.10;;;3.80;;
19278;SDS011;9773;47.062;15.446;2023-01-24T08:26:33;4.80;;;4.37;;
19278;SDS011;9773;47.062;15.446;2023-01-24T08:28:59;4.40;;;4.00;;
19278;SDS011;9773;47.062;15.446;2023-01-24T08:31:25;4.47;;;4.07;;
19278;SDS011;9773;47.062;15.446;2023-01-24T08:33:51;7.07;;;4.00;;
19278;SDS011;9773;47.062;15.446;2023-01-24T08:36:17;4.60;;;4.20;;
19278;SDS011;9773;47.062;15.446;2023-01-24T08:38:47;3.80;;;3.50;;
19278;SDS011;9773;47.062;15.446;2023-01-24T08:41:12;3.27;;;3.07;;
19278;SDS011;9773;47.062;15.446;2023-01-24T08:43:38;3.60;;;3.30;;
19278;SDS011;9773;47.062;15.446;2023-01-24T08:46:04;3.17;;;2.97;;
19278;SDS011;9773;47.062;15.446;2023-01-24T08:48:30;3.20;;;2.93;;
19278;SDS011;9773;47.062;15.446;2023-01-24T08:50:55;4.17;;;3.13;;
19278;SDS011;9773;47.062;15.446;2023-01-24T08:53:22;3.50;;;3.20;;
19278;SDS011;9773;47.062;15.446;2023-01-24T08:55:48;3.43;;;3.13;;
19278;SDS011;9773;47.062;15.446;2023-01-24T08:58:14;3.10;;;2.90;;
19278;SDS011;9773;47.062;15.446;2023-01-24T09:00:40;3.10;;;2.90;;
19278;SDS011;9773;47.062;15.446;2023-01-24T09:03:06;3.53;;;3.23;;
19278;SDS011;9773;47.062;15.446;2023-01-24T09:05:33;2.70;;;2.47;;
19278;SDS011;9773;47.062;15.446;2023-01-24T09:07:59;3.00;;;2.80;;
19278;SDS011;9773;47.062;15.446;2023-01-24T09:10:25;3.67;;;3.00;;
19278;SDS011;9773;47.062;15.446;2023-01-24T09:12:51;3.37;;;3.07;;
19278;SDS011;9773;47.062;15.446;2023-01-24T09:15:17;3.20;;;2.90;;
19278;SDS011;9773;47.062;15.446;2023-01-24T09:17:43;2.80;;;2.67;;
19278;SDS011;9773;47.062;15.446;2023-01-24T09:20:09;2.90;;;2.63;;
19278;SDS011;9773;47.062;15.446;2023-01-24T09:22:35;3.97;;;2.40;;
19278;SDS011;9773;47.062;15.446;2023-01-24T09:25:01;2.80;;;2.60;;
19278;SDS011;9773;47.062;15.446;2023-01-24T09:27:28;3.37;;;3.00;;
19278;SDS011;9773;47.062;15.446;2023-01-24T09:29:54;2.73;;;2.53;;
19278;SDS011;9773;47.062;15.446;2023-01-24T09:32:20;3.37;;;3.17;;
19278;SDS011;9773;47.062;15.446;2023-01-24T09:34:46;5.23;;;3.00;;
19278;SDS011;9773;47.062;15.446;2023-01-24T09:37:16;3.37;;;2.80;;
19278;SDS011;9773;47.062;15.446;2023-01-24T09:39:43;2.57;;;2.47;;
19278;SDS011;9773;47.062;15.446;2023-01-24T09:42:13;3.30;;;3.10;;
19278;SDS011;9773;47.062;15.446;2023-01-24T09:50:40;2.83;;;2.67;;
19278;SDS011;9773;47.062;15.446;2023-01-24T09:53:08;3.50;;;3.20;;
19278;SDS011;9773;47.062;15.446;2023-01-24T09:55:41;3.37;;;3.17;;
19278;SDS011;9773;47.062;15.446;2023-01-24T09:58:14;2.60;;;2.40;;
19278;SDS011;9773;47.062;15.446;2023-01-24T10:01:00;3.10;;;2.80;;
19278;SDS011;9773;47.062;15.446;2023-01-24T10:03:34;2.90;;;2.70;;
19278;SDS011;9773;47.062;15.446;2023-01-24T10:06:19;3.00;;;2.73;;
19278;SDS011;9773;47.062;15.446;2023-01-24T10:08:52;3.40;;;3.20;;
19278;SDS011;9773;47.062;15.446;2023-01-24T10:11:49;3.70;;;3.40;;
19278;SDS011;9773;47.062;15.446;2023-01-24T10:22:28;4.27;;;3.90;;
19278;SDS011;9773;47.062;15.446;2023-01-24T10:27:53;3.83;;;3.20;;
19278;SDS011;9773;47.062;15.446;2023-01-24T10:31:08;3.10;;;2.90;;
19278;SDS011;9773;47.062;15.446;2023-01-24T10:33:14;2.73;;;2.60;;
19278;SDS011;9773;47.062;15.446;2023-01-24T10:35:52;3.00;;;2.80;;
19278;SDS011;9773;47.062;15.446;2023-01-24T10:38:32;3.00;;;2.80;;
19278;SDS011;9773;47.062;15.446;2023-01-24T10:41:43;3.63;;;3.07;;
19278;SDS011;9773;47.062;15.446;2023-01-24T10:43:49;3.50;;;3.20;;
19278;SDS011;9773;47.062;15.446;2023-01-24T10:46:30;3.07;;;2.87;;
19278;SDS011;9773;47.062;15.446;2023-01-24T10:49:11;3.23;;;2.93;;
19278;SDS011;9773;47.062;15.446;2023-01-24T10:52:08;3.50;;;3.20;;
19278;SDS011;9773;47.062;15.446;2023-01-24T10:57:40;3.53;;;2.37;;
19278;SDS011;9773;47.062;15.446;2023-01-24T11:00:16;2.70;;;2.50;;
19278;SDS011;9773;47.062;15.446;2023-01-24T11:03:20;3.00;;;2.70;;
19278;SDS011;9773;47.062;15.446;2023-01-24T11:05:49;5.73;;;2.70;;
19278;SDS011;9773;47.062;15.446;2023-01-24T11:08:18;2.93;;;2.73;;
19278;SDS011;9773;47.062;15.446;2023-01-24T11:10:53;3.40;;;3.17;;
19278;SDS011;9773;47.062;15.446;2023-01-24T11:15:53;3.30;;;3.00;;
19278;SDS011;9773;47.062;15.446;2023-01-24T11:18:26;2.83;;;2.63;;
19278;SDS011;9773;47.062;15.446;2023-01-24T11:21:13;2.90;;;2.70;;
19278;SDS011;9773;47.062;15.446;2023-01-24T11:23:40;2.90;;;2.70;;
19278;SDS011;9773;47.062;15.446;2023-01-24T11:26:24;2.87;;;2.67;;
19278;SDS011;9773;47.062;15.446;2023-01-24T11:28:59;2.70;;;2.50;;
19278;SDS011;9773;47.062;15.446;2023-01-24T11:42:42;4.57;;;3.23;;
19278;SDS011;9773;47.062;15.446;2023-01-24T11:48:21;4.20;;;3.70;;
19278;SDS011;9773;47.062;15.446;2023-01-24T11:51:02;6.50;;;3.67;;
19278;SDS011;9773;47.062;15.446;2023-01-24T11:53:38;3.37;;;3.10;;
19278;SDS011;9773;47.062;15.446;2023-01-24T12:01:36;4.27;;;3.87;;
19278;SDS011;9773;47.062;15.446;2023-01-24T12:09:48;4.90;;;4.40;;
19278;SDS011;9773;47.062;15.446;2023-01-24T12:12:37;5.33;;;4.83;;
19278;SDS011;9773;47.062;15.446;2023-01-24T12:15:08;5.83;;;4.80;;
19278;SDS011;9773;47.062;15.446;2023-01-24T12:29:02;5.40;;;4.90;;
19278;SDS011;9773;47.062;15.446;2023-01-24T12:37:04;4.77;;;4.37;;
19278;SDS011;9773;47.062;15.446;2023-01-24T12:39:41;4.33;;;3.93;;
19278;SDS011;9773;47.062;15.446;2023-01-24T12:42:16;4.27;;;3.97;;
19278;SDS011;9773;47.062;15.446;2023-01-24T12:44:48;4.27;;;3.90;;
19278;SDS011;9773;47.062;15.446;2023-01-24T12:47:41;5.20;;;4.27;;
19278;SDS011;9773;47.062;15.446;2023-01-24T12:53:56;3.87;;;3.67;;
19278;SDS011;9773;47.062;15.446;2023-01-24T12:56:20;4.13;;;3.50;;
19278;SDS011;9773;47.062;15.446;2023-01-24T12:59:01;4.40;;;4.10;;
19278;SDS011;9773;47.062;15.446;2023-01-24T13:01:30;4.50;;;4.20;;
19278;SDS011;9773;47.062;15.446;2023-01-24T13:06:53;5.27;;;3.90;;
19278;SDS011;9773;47.062;15.446;2023-01-24T13:09:36;4.60;;;4.20;;
19278;SDS011;9773;47.062;15.446;2023-01-24T13:12:07;6.20;;;4.47;;
19278;SDS011;9773;47.062;15.446;2023-01-24T13:14:51;4.93;;;4.53;;
19278;SDS011;9773;47.062;15.446;2023-01-24T13:20:11;4.97;;;4.53;;
19278;SDS011;9773;47.062;15.446;2023-01-24T13:28:55;5.13;;;4.60;;
19278;SDS011;9773;47.062;15.446;2023-01-24T13:31:30;6.90;;;4.60;;
19278;SDS011;9773;47.062;15.446;2023-01-24T13:34:04;6.30;;;5.33;;
19278;SDS011;9773;47.062;15.446;2023-01-24T13:36:38;6.23;;;5.63;;
19278;SDS011;9773;47.062;15.446;2023-01-24T13:39:04;6.63;;;5.77;;
19278;SDS011;9773;47.062;15.446;2023-01-24T13:41:32;7.93;;;6.10;;
19278;SDS011;9773;47.062;15.446;2023-01-24T13:49:16;6.07;;;5.47;;
19278;SDS011;9773;47.062;15.446;2023-01-24T13:51:43;6.90;;;6.20;;
19278;SDS011;9773;47.062;15.446;2023-01-24T13:59:41;6.33;;;5.67;;
19278;SDS011;9773;47.062;15.446;2023-01-24T14:04:54;6.87;;;5.83;;
19278;SDS011;9773;47.062;15.446;2023-01-24T14:07:27;7.83;;;6.30;;
19278;SDS011;9773;47.062;15.446;2023-01-24T14:09:58;6.20;;;5.60;;
19278;SDS011;9773;47.062;15.446;2023-01-24T14:12:26;6.57;;;5.90;;
19278;SDS011;9773;47.062;15.446;2023-01-24T14:15:13;6.47;;;5.83;;
19278;SDS011;9773;47.062;15.446;2023-01-24T14:18:26;7.00;;;6.30;;
19278;SDS011;9773;47.062;15.446;2023-01-24T14:21:25;7.77;;;5.80;;
19278;SDS011;9773;47.062;15.446;2023-01-24T14:24:01;7.33;;;6.13;;
19278;SDS011;9773;47.062;15.446;2023-01-24T14:26:43;6.63;;;5.23;;
19278;SDS011;9773;47.062;15.446;2023-01-24T14:29:13;6.00;;;5.40;;
19278;SDS011;9773;47.062;15.446;2023-01-24T14:31:41;7.73;;;6.17;;
19278;SDS011;9773;47.062;15.446;2023-01-24T14:34:21;7.50;;;6.30;;
19278;SDS011;9773;47.062;15.446;2023-01-24T14:37:02;6.50;;;5.80;;
19278;SDS011;9773;47.062;15.446;2023-01-24T14:39:33;5.77;;;5.17;;
19278;SDS011;9773;47.062;15.446;2023-01-24T14:41:59;7.57;;;6.10;;
19278;SDS011;9773;47.062;15.446;2023-01-24T14:44:28;7.77;;;6.60;;
19278;SDS011;9773;47.062;15.446;2023-01-24T14:49:48;7.57;;;5.77;;
19278;SDS011;9773;47.062;15.446;2023-01-24T14:52:16;6.87;;;6.17;;
19278;SDS011;9773;47.062;15.446;2023-01-24T14:54:46;6.53;;;5.90;;
19278;SDS011;9773;47.062;15.446;2023-01-24T15:02:39;7.20;;;5.77;;
19278;SDS011;9773;47.062;15.446;2023-01-24T15:05:31;5.97;;;5.30;;
19278;SDS011;9773;47.062;15.446;2023-01-24T15:08:00;6.73;;;6.07;;
19278;SDS011;9773;47.062;15.446;2023-01-24T15:10:27;8.90;;;6.30;;
19278;SDS011;9773;47.062;15.446;2023-01-24T15:12:54;7.20;;;6.07;;
19278;SDS011;9773;47.062;15.446;2023-01-24T15:15:23;6.83;;;6.13;;
19278;SDS011;9773;47.062;15.446;2023-01-24T15:17:50;6.30;;;5.67;;
19278;SDS011;9773;47.062;15.446;2023-01-24T15:20:21;6.83;;;6.17;;
19278;SDS011;9773;47.062;15.446;2023-01-24T15:22:49;6.87;;;6.13;;
19278;SDS011;9773;47.062;15.446;2023-01-24T15:25:27;7.40;;;6.40;;
19278;SDS011;9773;47.062;15.446;2023-01-24T15:27:54;7.37;;;6.13;;
19278;SDS011;9773;47.062;15.446;2023-01-24T15:30:25;6.47;;;5.83;;
19278;SDS011;9773;47.062;15.446;2023-01-24T15:43:33;7.93;;;6.70;;
19278;SDS011;9773;47.062;15.446;2023-01-24T15:49:24;7.33;;;6.50;;
19278;SDS011;9773;47.062;15.446;2023-01-24T15:54:27;7.63;;;6.60;;
19278;SDS011;9773;47.062;15.446;2023-01-24T15:56:54;7.10;;;6.40;;
19278;SDS011;9773;47.062;15.446;2023-01-24T15:59:23;8.37;;;6.40;;
19278;SDS011;9773;47.062;15.446;2023-01-24T16:01:49;8.43;;;7.20;;
19278;SDS011;9773;47.062;15.446;2023-01-24T16:04:16;6.90;;;6.17;;
19278;SDS011;9773;47.062;15.446;2023-01-24T16:06:43;6.90;;;6.27;;
19278;SDS011;9773;47.062;15.446;2023-01-24T16:09:09;7.90;;;7.10;;
19278;SDS011;9773;47.062;15.446;2023-01-24T16:11:36;7.23;;;6.53;;
19278;SDS011;9773;47.062;15.446;2023-01-24T16:14:02;8.20;;;6.97;;
19278;SDS011;9773;47.062;15.446;2023-01-24T16:16:29;10.50;;;7.97;;
19278;SDS011;9773;47.062;15.446;2023-01-24T16:18:55;8.30;;;7.20;;
19278;SDS011;9773;47.062;15.446;2023-01-24T16:21:21;8.37;;;7.13;;
19278;SDS011;9773;47.062;15.446;2023-01-24T16:23:47;9.10;;;7.80;;
19278;SDS011;9773;47.062;15.446;2023-01-24T16:26:23;10.83;;;8.50;;
19278;SDS011;9773;47.062;15.446;2023-01-24T16:28:50;8.93;;;7.33;;
19278;SDS011;9773;47.062;15.446;2023-01-24T16:31:16;9.63;;;8.03;;
19278;SDS011;9773;47.062;15.446;2023-01-24T16:33:43;10.03;;;7.87;;
19278;SDS011;9773;47.062;15.446;2023-01-24T16:36:12;8.40;;;7.00;;
19278;SDS011;9773;47.062;15.446;2023-01-24T16:38:42;11.17;;;8.50;;
19278;SDS011;9773;47.062;15.446;2023-01-24T16:41:09;10.73;;;7.77;;
19278;SDS011;9773;47.062;15.446;2023-01-24T16:43:35;8.50;;;7.40;;
19278;SDS011;9773;47.062;15.446;2023-01-24T16:46:01;10.60;;;7.87;;
19278;SDS011;9773;47.062;15.446;2023-01-24T16:48:29;11.07;;;7.63;;
19278;SDS011;9773;47.062;15.446;2023-01-24T16:50:55;11.43;;;8.87;;
19278;SDS011;9773;47.062;15.446;2023-01-24T16:53:21;15.07;;;10.17;;
19278;SDS011;9773;47.062;15.446;2023-01-24T16:55:56;12.37;;;9.83;;
19278;SDS011;9773;47.062;15.446;2023-01-24T16:58:22;13.03;;;9.80;;
19278;SDS011;9773;47.062;15.446;2023-01-24T17:00:48;13.37;;;9.87;;
19278;SDS011;9773;47.062;15.446;2023-01-24T17:03:14;11.63;;;9.57;;
19278;SDS011;9773;47.062;15.446;2023-01-24T17:05:40;12.77;;;9.93;;
19278;SDS011;9773;47.062;15.446;2023-01-24T17:08:07;13.83;;;10.63;;
19278;SDS011;9773;47.062;15.446;2023-01-24T17:10:36;16.30;;;10.63;;
19278;SDS011;9773;47.062;15.446;2023-01-24T17:13:03;12.10;;;9.43;;
19278;SDS011;9773;47.062;15.446;2023-01-24T17:15:31;16.17;;;10.63;;
19278;SDS011;9773;47.062;15.446;2023-01-24T17:18:06;12.17;;;10.20;;